Time;durP1;ratioP1;P1;durP2;ratioP2;P2;SDS_P1;SDS_P2;PMS_P1;PMS_P2;Temp;Humidity;BMP_temperature;BMP_pressure;BME280_temperature;BME280_humidity;BME280_pressure;Samples;Min_cycle;Max_cycle;Signal;HPM_P1;HPM_P2
2020/12/03 00:01:45;;;;;;;;;;;;;;;-1.78;80.96;101034.58;1637462;87;20163;-77
2020/12/03 00:04:10;;;;;;;;;;;;;;;-1.79;80.91;101036.25;1625707;87;20601;-77
2020/12/03 00:06:39;;;;;;;;;;;;;;;-1.78;80.96;101030.77;1625460;85;20170;-77
2020/12/03 00:09:08;;;;;;;;;;;;;;;-1.77;80.94;101046.45;1618957;87;20194;-77
2020/12/03 00:11:36;;;;;;;;;;;;;;;-1.75;80.95;101046.11;1640981;87;21246;-77
2020/12/03 00:14:02;;;;;;;;;;;;;;;-1.75;81.00;101049.51;1628748;87;20260;-77
2020/12/03 00:16:30;;;;;;;;;;;;;;;-1.71;80.92;101055.56;1641407;87;20240;-77
2020/12/03 00:18:56;;;;;;;;;;;;;;;-1.72;80.87;101054.70;1637235;87;20289;-77
2020/12/03 00:21:34;;;;;;;;;;;;;;;-1.72;80.90;101053.84;1618404;87;20289;-77
2020/12/03 00:23:59;;;;;;;;;;;;;;;-1.75;80.81;101052.45;1621434;87;21365;-77
2020/12/03 00:26:27;;;;;;;;;;;;;;;-1.77;80.84;101048.58;1598334;89;20813;-77
2020/12/03 00:28:53;;;;;;;;;;;;;;;-1.76;80.86;101046.91;1604856;87;20621;-77
2020/12/03 00:31:18;;;;;;;;;;;;;;;-1.75;80.82;101049.91;1607770;89;20712;-77
2020/12/03 00:33:44;;;;;;;;;;;;;;;-1.79;80.84;101041.31;1607279;89;20166;-77
2020/12/03 00:36:10;;;;;;;;;;;;;;;-1.79;80.90;101046.38;1605769;88;21214;-78
2020/12/03 00:38:36;;;;;;;;;;;;;;;-1.76;80.93;101052.84;1615277;87;20266;-78
2020/12/03 00:41:02;;;;;;;;;;;;;;;-1.72;80.94;101055.11;1639021;87;20271;-78
2020/12/03 00:43:27;;;;;;;;;;;;;;;-1.71;80.91;101050.09;1641840;87;20624;-78
2020/12/03 00:45:53;;;;;;;;;;;;;;;-1.73;80.82;101059.31;1641825;87;20220;-78
2020/12/03 00:48:19;;;;;;;;;;;;;;;-1.76;80.81;101051.98;1631800;87;21289;-78
2020/12/03 00:50:46;;;;;;;;;;;;;;;-1.80;80.74;101056.06;1641642;87;20247;-78
2020/12/03 00:53:12;;;;;;;;;;;;;;;-1.80;80.83;101038.72;1619702;87;20216;-78
2020/12/03 00:55:38;;;;;;;;;;;;;;;-1.84;80.71;101034.33;1635066;87;20200;-78
2020/12/03 00:58:06;;;;;;;;;;;;;;;-1.92;80.60;101020.08;1640841;87;20257;-78
2020/12/03 01:00:32;;;;;;;;;;;;;;;-1.95;80.74;101017.82;1628093;86;21236;-78
2020/12/03 01:02:58;;;;;;;;;;;;;;;-1.95;80.79;101017.82;1616116;87;20281;-78
2020/12/03 01:05:24;;;;;;;;;;;;;;;-1.97;80.78;101010.16;1615469;88;20262;-78
2020/12/03 01:07:50;;;;;;;;;;;;;;;-1.96;80.80;101007.22;1620592;87;20625;-78
2020/12/03 01:10:22;;;;;;;;;;;;;;;-1.95;80.82;101006.41;1627390;87;20158;-77
2020/12/03 01:12:48;;;;;;;;;;;;;;;-1.98;80.73;101010.09;1615537;87;21231;-78
2020/12/03 01:15:14;;;;;;;;;;;;;;;-2.00;80.74;100996.09;1632175;86;20305;-77
2020/12/03 01:17:41;;;;;;;;;;;;;;;-2.00;80.82;100994.42;1636202;87;20278;-77
2020/12/03 01:20:12;;;;;;;;;;;;;;;-2.03;80.69;100986.70;1655145;86;20498;-77
2020/12/03 01:22:38;;;;;;;;;;;;;;;-2.02;80.77;100983.77;1644543;85;20317;-77
2020/12/03 01:25:05;;;;;;;;;;;;;;;-2.03;80.80;100976.97;1634838;86;21255;-77
2020/12/03 01:27:31;;;;;;;;;;;;;;;-2.03;80.76;100970.23;1647644;86;20730;-77
2020/12/03 01:29:57;;;;;;;;;;;;;;;-2.06;80.68;100965.04;1651564;86;20250;-77
2020/12/03 01:32:22;;;;;;;;;;;;;;;-2.10;80.63;100967.42;1637579;84;20301;-77
2020/12/03 01:34:48;;;;;;;;;;;;;;;-2.15;80.64;100957.10;1634738;86;20190;-77
2020/12/03 01:37:17;;;;;;;;;;;;;;;-2.17;80.68;100948.98;1634720;87;21108;-77
2020/12/03 01:39:42;;;;;;;;;;;;;;;-2.19;80.68;100950.58;1636635;86;20558;-77
2020/12/03 01:42:08;;;;;;;;;;;;;;;-2.19;80.77;100952.71;1658159;86;20187;-77
2020/12/03 01:44:40;;;;;;;;;;;;;;;-2.18;80.73;100956.98;1658282;86;20288;-77
2020/12/03 01:47:07;;;;;;;;;;;;;;;-2.23;80.59;100944.92;1636342;86;20253;-77
2020/12/03 01:49:34;;;;;;;;;;;;;;;-2.26;80.65;100932.14;1646827;86;22721;-77
2020/12/03 01:52:00;;;;;;;;;;;;;;;-2.28;80.68;100914.34;1636178;86;20282;-77
2020/12/03 01:54:26;;;;;;;;;;;;;;;-2.28;80.71;100910.95;1636390;87;20535;-78
2020/12/03 01:57:25;;;;;;;;;;;;;;;-2.30;80.72;100912.55;1656666;84;21200;-78
2020/12/03 02:00:06;;;;;;;;;;;;;;;-2.32;80.67;100911.63;1636449;86;20269;-78
2020/12/03 02:02:32;;;;;;;;;;;;;;;-2.38;80.60;100903.38;1661701;86;21201;-77
2020/12/03 02:05:10;;;;;;;;;;;;;;;-2.40;80.68;100901.19;1663363;85;20350;-77
2020/12/03 02:07:37;;;;;;;;;;;;;;;-2.38;80.78;100897.91;1657708;85;20257;-77
2020/12/03 02:10:05;;;;;;;;;;;;;;;-2.36;80.75;100896.71;1636352;86;20290;-77
2020/12/03 02:12:30;;;;;;;;;;;;;;;-2.37;80.73;100903.84;1639859;86;20279;-77
2020/12/03 02:14:56;;;;;;;;;;;;;;;-2.37;80.70;100894.98;1646979;86;21267;-77
2020/12/03 02:17:22;;;;;;;;;;;;;;;-2.41;80.64;100888.06;1641810;87;20188;-77
2020/12/03 02:19:56;;;;;;;;;;;;;;;-2.43;80.63;100885.88;1641982;86;20271;-77
2020/12/03 02:22:22;;;;;;;;;;;;;;;-2.43;80.74;100879.14;1616868;87;20481;-77
2020/12/03 02:24:48;;;;;;;;;;;;;;;-2.42;80.75;100880.00;1615654;87;20295;-77
2020/12/03 02:27:17;;;;;;;;;;;;;;;-2.41;80.77;100880.47;1636268;87;21282;-77
2020/12/03 02:29:42;;;;;;;;;;;;;;;-2.41;80.74;100879.20;1641829;87;20318;-78
2020/12/03 02:32:08;;;;;;;;;;;;;;;-2.41;80.73;100881.33;1641898;87;20228;-77
2020/12/03 02:34:34;;;;;;;;;;;;;;;-2.43;80.65;100887.14;1628421;87;20174;-77
2020/12/03 02:37:02;;;;;;;;;;;;;;;-2.44;80.72;100885.41;1615545;87;20269;-77
2020/12/03 02:39:30;;;;;;;;;;;;;;;-2.45;80.70;100876.95;1615549;88;20640;-77
2020/12/03 02:41:56;;;;;;;;;;;;;;;-2.45;80.72;100873.55;1615364;88;20278;-78
2020/12/03 02:44:22;;;;;;;;;;;;;;;-2.45;80.72;100874.41;1622415;86;20300;-77
2020/12/03 02:46:48;;;;;;;;;;;;;;;-2.45;80.69;100872.28;1621172;87;20194;-77
2020/12/03 02:49:14;;;;;;;;;;;;;;;-2.48;80.66;100865.83;1630619;87;20721;-77
2020/12/03 02:51:40;;;;;;;;;;;;;;;-2.46;80.73;100860.03;1641843;87;21171;-77
2020/12/03 02:54:08;;;;;;;;;;;;;;;-2.44;80.68;100858.42;1641364;87;20630;-77
2020/12/03 02:56:34;;;;;;;;;;;;;;;-2.45;80.67;100855.42;1641970;86;20572;-77
2020/12/03 02:59:00;;;;;;;;;;;;;;;-2.43;80.72;100858.02;1641863;87;20295;-77
2020/12/03 03:01:26;;;;;;;;;;;;;;;-2.43;80.67;100854.22;1637101;86;20351;-77
2020/12/03 03:03:52;;;;;;;;;;;;;;;-2.45;80.63;100847.83;1623728;86;21221;-77
2020/12/03 03:06:18;;;;;;;;;;;;;;;-2.50;80.57;100848.45;1616272;87;20206;-77
2020/12/03 03:08:44;;;;;;;;;;;;;;;-2.53;80.58;100863.12;1623752;86;20210;-77
2020/12/03 03:11:10;;;;;;;;;;;;;;;-2.56;80.57;100855.80;1632658;87;20212;-77
2020/12/03 03:13:35;;;;;;;;;;;;;;;-2.58;80.59;100853.20;1643789;86;20281;-77
2020/12/03 03:16:01;;;;;;;;;;;;;;;-2.61;80.56;100842.12;1631589;86;21456;-78
2020/12/03 03:18:27;;;;;;;;;;;;;;;-2.63;80.58;100844.99;1616941;87;20804;-78
2020/12/03 03:20:53;;;;;;;;;;;;;;;-2.64;80.62;100844.13;1641816;87;20252;-78
2020/12/03 03:23:18;;;;;;;;;;;;;;;-2.62;80.68;100839.12;1637159;87;20700;-78
2020/12/03 03:25:44;;;;;;;;;;;;;;;-2.62;80.69;100832.80;1618071;87;20299;-78
2020/12/03 03:28:11;;;;;;;;;;;;;;;-2.62;80.67;100830.27;1615449;88;21204;-78
2020/12/03 03:30:37;;;;;;;;;;;;;;;-2.63;80.65;100826.01;1637427;87;20296;-77
2020/12/03 03:33:04;;;;;;;;;;;;;;;-2.63;80.67;100824.34;1641795;86;20262;-77
2020/12/03 03:35:29;;;;;;;;;;;;;;;-2.64;80.69;100819.22;1632109;87;20254;-77
2020/12/03 03:37:55;;;;;;;;;;;;;;;-2.63;80.70;100814.62;1640295;87;20199;-77
2020/12/03 03:40:21;;;;;;;;;;;;;;;-2.63;80.72;100812.09;1635959;86;23392;-77
2020/12/03 03:42:47;;;;;;;;;;;;;;;-2.63;80.73;100813.36;1630750;86;20194;-77
2020/12/03 03:45:13;;;;;;;;;;;;;;;-2.63;80.72;100806.63;1641826;86;20606;-77
2020/12/03 03:47:40;;;;;;;;;;;;;;;-2.61;80.80;100799.95;1630495;87;20196;-77
2020/12/03 03:50:06;;;;;;;;;;;;;;;-2.63;80.69;100796.91;1641927;87;20267;-77
2020/12/03 03:52:32;;;;;;;;;;;;;;;-2.65;80.63;100795.98;1624973;87;21205;-77
2020/12/03 03:54:58;;;;;;;;;;;;;;;-2.69;80.69;100790.80;1624294;87;20715;-77
2020/12/03 03:57:24;;;;;;;;;;;;;;;-2.69;80.70;100793.73;1617183;87;20294;-77
2020/12/03 03:59:50;;;;;;;;;;;;;;;-2.71;80.71;100786.07;1617231;87;20830;-77
2020/12/03 04:02:20;;;;;;;;;;;;;;;-2.72;80.64;100794.87;1628539;87;20137;-77
2020/12/03 04:04:47;;;;;;;;;;;;;;;-2.78;80.58;100789.16;1623516;87;21221;-77
2020/12/03 04:07:13;;;;;;;;;;;;;;;-2.81;80.62;100795.77;1615289;87;20541;-77
2020/12/03 04:09:39;;;;;;;;;;;;;;;-2.86;80.64;100785.45;1621862;87;20273;-77
2020/12/03 04:12:05;;;;;;;;;;;;;;;-2.86;80.70;100776.59;1635415;87;20582;-77
2020/12/03 04:14:31;;;;;;;;;;;;;;;-2.87;80.67;100768.55;1641825;86;20772;-77
2020/12/03 04:16:56;;;;;;;;;;;;;;;-2.90;80.68;100768.42;1648463;86;21254;-77
2020/12/03 04:19:22;;;;;;;;;;;;;;;-2.90;80.74;100766.29;1648042;86;20267;-77
2020/12/03 04:21:48;;;;;;;;;;;;;;;-2.90;80.69;100762.50;1662784;86;20212;-77
2020/12/03 04:24:13;;;;;;;;;;;;;;;-2.93;80.70;100754.38;1651245;85;20220;-77
2020/12/03 04:26:39;;;;;;;;;;;;;;;-2.95;80.71;100750.92;1662988;86;20570;-77
2020/12/03 04:29:05;;;;;;;;;;;;;;;-2.95;80.79;100751.33;1663095;84;21185;-77
2020/12/03 04:31:30;;;;;;;;;;;;;;;-2.93;80.78;100750.98;1657968;86;20281;-77
2020/12/03 04:33:56;;;;;;;;;;;;;;;-2.93;80.80;100739.61;1636217;86;20738;-77
2020/12/03 04:36:22;;;;;;;;;;;;;;;-2.92;80.85;100738.40;1641236;84;20168;-77
2020/12/03 04:38:48;;;;;;;;;;;;;;;-2.89;80.84;100737.26;1660409;86;20247;-77
2020/12/03 04:41:16;;;;;;;;;;;;;;;-2.87;80.82;100739.45;1642331;86;21222;-77
2020/12/03 04:43:47;;;;;;;;;;;;;;;-2.84;80.84;100738.30;1663079;86;20263;-78
2020/12/03 04:46:33;;;;;;;;;;;;;;;-2.83;80.84;100731.17;1663182;85;20267;-77
2020/12/03 04:49:23;;;;;;;;;;;;;;;-2.83;80.77;100731.17;1653716;86;20284;-77
2020/12/03 04:52:14;;;;;;;;;;;;;;;-2.84;80.77;100723.12;1638848;85;20262;-77
2020/12/03 04:54:42;;;;;;;;;;;;;;;-2.83;80.77;100729.05;1575922;90;21667;-78
2020/12/03 04:57:23;;;;;;;;;;;;;;;-2.83;80.76;100721.46;1531973;92;20280;-78
2020/12/03 04:59:58;;;;;;;;;;;;;;;-2.84;80.79;100713.00;1575689;91;20554;-78
2020/12/03 05:02:43;;;;;;;;;;;;;;;-2.82;80.81;100705.07;1575952;91;20478;-78
2020/12/03 05:05:24;;;;;;;;;;;;;;;-2.82;80.82;100703.80;1556797;91;20285;-77
2020/12/03 05:07:56;;;;;;;;;;;;;;;-2.80;80.79;100705.13;1575687;91;21146;-77
2020/12/03 05:10:35;;;;;;;;;;;;;;;-2.79;80.82;100704.33;1571462;91;20310;-77
2020/12/03 05:13:01;;;;;;;;;;;;;;;-2.77;80.80;100706.12;1575840;91;20294;-77
2020/12/03 05:15:32;;;;;;;;;;;;;;;-2.73;80.84;100707.09;1575912;90;20194;-77
2020/12/03 05:18:21;;;;;;;;;;;;;;;-2.71;80.84;100700.03;1575794;91;20315;-77
2020/12/03 05:20:52;;;;;;;;;;;;;;;-2.67;80.86;100695.95;1558492;91;21281;-78
2020/12/03 05:23:26;;;;;;;;;;;;;;;-2.66;80.80;100685.02;1575706;91;20290;-78
2020/12/03 05:25:54;;;;;;;;;;;;;;;-2.65;80.75;100685.48;1575861;91;20285;-77
2020/12/03 05:28:32;;;;;;;;;;;;;;;-2.61;80.86;100690.25;1575979;91;20294;-77
2020/12/03 05:31:10;;;;;;;;;;;;;;;-2.58;80.86;100684.87;1574690;86;20286;-77
2020/12/03 05:33:36;;;;;;;;;;;;;;;-2.56;80.85;100674.81;1660367;84;21261;-77
2020/12/03 05:36:02;;;;;;;;;;;;;;;-2.52;80.86;100666.12;1663169;86;20290;-77
2020/12/03 05:38:27;;;;;;;;;;;;;;;-2.49;80.89;100664.11;1643718;86;20282;-77
2020/12/03 05:41:02;;;;;;;;;;;;;;;-2.44;80.94;100656.28;1636200;86;20218;-77
2020/12/03 05:43:28;;;;;;;;;;;;;;;-2.40;80.92;100666.58;1636100;87;20302;-78
2020/12/03 05:45:57;;;;;;;;;;;;;;;-2.37;80.86;100662.89;1636847;86;21362;-78
2020/12/03 05:48:22;;;;;;;;;;;;;;;-2.34;80.88;100662.14;1651831;86;20519;-78
2020/12/03 05:50:48;;;;;;;;;;;;;;;-2.31;80.83;100653.80;1647537;86;20224;-78
2020/12/03 05:53:20;;;;;;;;;;;;;;;-2.30;80.84;100647.92;1654209;85;20269;-78
2020/12/03 05:55:47;;;;;;;;;;;;;;;-2.29;80.86;100651.78;1644258;84;20569;-78
2020/12/03 05:58:25;;;;;;;;;;;;;;;-2.27;80.87;100648.03;1641749;86;21156;-78
2020/12/03 06:00:51;;;;;;;;;;;;;;;-2.26;80.82;100633.30;1641975;86;20642;-78
2020/12/03 06:03:41;;;;;;;;;;;;;;;-2.28;80.77;100644.64;1649956;85;20218;-78
2020/12/03 06:06:22;;;;;;;;;;;;;;;-2.30;80.84;100629.80;1644791;86;20272;-76
2020/12/03 06:09:20;;;;;;;;;;;;;;;-2.30;80.81;100627.27;1648205;86;20267;-76
2020/12/03 06:11:58;;;;;;;;;;;;;;;-2.29;80.90;100623.06;1658180;85;21398;-76
2020/12/03 06:14:46;;;;;;;;;;;;;;;-2.25;80.93;100617.30;1646388;86;20248;-76
2020/12/03 06:17:24;;;;;;;;;;;;;;;-2.23;80.89;100623.28;1587164;88;20567;-76
2020/12/03 06:20:23;;;;;;;;;;;;;;;-2.22;80.89;100619.53;1588594;89;20706;-78
2020/12/03 06:23:01;;;;;;;;;;;;;;;-2.18;80.94;100620.50;1585655;88;20526;-77
2020/12/03 06:25:36;;;;;;;;;;;;;;;-2.16;80.87;100619.75;1592430;88;22314;-75
2020/12/03 06:28:23;;;;;;;;;;;;;;;-2.13;80.91;100610.13;1580644;89;20823;-75
2020/12/03 06:31:21;;;;;;;;;;;;;;;-2.10;80.94;100608.56;1584535;88;20342;-74
2020/12/03 06:33:53;;;;;;;;;;;;;;;-2.06;80.89;100602.77;1580074;89;20391;-74
2020/12/03 06:36:41;;;;;;;;;;;;;;;-2.01;80.91;100609.26;1582611;89;20351;-74
2020/12/03 06:39:36;;;;;;;;;;;;;;;-1.96;80.91;100618.28;1570177;89;21361;-79
2020/12/03 06:42:18;;;;;;;;;;;;;;;-1.91;80.92;100622.70;1586408;89;20643;-78
2020/12/03 06:44:47;;;;;;;;;;;;;;;-1.85;80.94;100629.65;1579214;89;20834;-79
2020/12/03 06:47:33;;;;;;;;;;;;;;;-1.79;80.98;100628.59;1581333;88;20282;-80
2020/12/03 06:50:18;;;;;;;;;;;;;;;-1.73;80.94;100632.60;1579668;89;20708;-79
2020/12/03 06:53:03;;;;;;;;;;;;;;;-1.67;80.90;100642.95;1581933;89;21822;-79
2020/12/03 06:55:52;;;;;;;;;;;;;;;-1.65;80.83;100637.52;1631603;87;20260;-79
2020/12/03 06:58:37;;;;;;;;;;;;;;;-1.64;80.77;100641.78;1619266;87;20560;-79
2020/12/03 07:01:19;;;;;;;;;;;;;;;-1.63;80.76;100641.38;1633230;86;20269;-79
2020/12/03 07:04:11;;;;;;;;;;;;;;;-1.64;80.78;100640.52;1598096;86;20270;-79
2020/12/03 07:06:43;;;;;;;;;;;;;;;-1.65;80.77;100638.79;1606445;87;21213;-79
2020/12/03 07:09:22;;;;;;;;;;;;;;;-1.67;80.76;100632.40;1599280;87;20257;-79
2020/12/03 07:12:09;;;;;;;;;;;;;;;-1.66;80.75;100630.73;1587458;89;20279;-79
2020/12/03 07:15:12;;;;;;;;;;;;;;;-1.63;80.81;100628.70;1595316;89;20296;-79
2020/12/03 07:18:06;;;;;;;;;;;;;;;-1.61;80.84;100638.08;1601462;89;20874;-80
2020/12/03 07:20:52;;;;;;;;;;;;;;;-1.58;80.89;100630.98;1620646;87;22697;-80
2020/12/03 07:23:40;;;;;;;;;;;;;;;-1.57;80.80;100619.63;1614107;87;20269;-79
2020/12/03 07:26:12;;;;;;;;;;;;;;;-1.54;80.77;100624.77;1646346;86;20527;-76
2020/12/03 07:28:38;;;;;;;;;;;;;;;-1.57;80.70;100612.02;1656522;86;20318;-79
2020/12/03 07:31:07;;;;;;;;;;;;;;;-1.58;80.77;100613.23;1656183;84;20235;-78
2020/12/03 07:33:45;;;;;;;;;;;;;;;-1.57;80.79;100620.03;1625186;86;21236;-79
2020/12/03 07:36:24;;;;;;;;;;;;;;;-1.57;80.77;100625.10;1624966;85;20322;-79
2020/12/03 07:38:59;;;;;;;;;;;;;;;-1.55;80.81;100622.17;1639407;86;20337;-77
2020/12/03 07:41:28;;;;;;;;;;;;;;;-1.54;80.81;100622.63;1645503;84;20294;-78
2020/12/03 07:44:07;;;;;;;;;;;;;;;-1.53;80.82;100616.34;1640135;86;20329;-78
2020/12/03 07:46:35;;;;;;;;;;;;;;;-1.51;80.80;100608.38;1632290;85;21592;-79
2020/12/03 07:49:01;;;;;;;;;;;;;;;-1.50;80.81;100605.44;1644032;85;20251;-79
2020/12/03 07:51:27;;;;;;;;;;;;;;;-1.50;80.80;100599.97;1649031;86;20180;-78
2020/12/03 07:54:11;;;;;;;;;;;;;;;-1.47;80.81;100596.66;1635740;86;21083;-79
2020/12/03 07:56:39;;;;;;;;;;;;;;;-1.45;80.79;100593.77;1645259;86;20293;-79
2020/12/03 07:59:26;;;;;;;;;;;;;;;-1.45;80.74;100589.56;1634494;86;21205;-78
2020/12/03 08:01:53;;;;;;;;;;;;;;;-1.45;80.74;100583.22;1658820;86;20746;-78
2020/12/03 08:04:22;;;;;;;;;;;;;;;-1.45;80.73;100584.89;1640565;85;20261;-78
2020/12/03 08:07:06;;;;;;;;;;;;;;;-1.44;80.71;100590.02;1601801;89;20575;-78
2020/12/03 08:09:41;;;;;;;;;;;;;;;-1.44;80.77;100584.95;1600319;89;20678;-78
2020/12/03 08:12:12;;;;;;;;;;;;;;;-1.39;80.73;100587.62;1590987;87;21160;-76
2020/12/03 08:14:47;;;;;;;;;;;;;;;-1.39;80.72;100580.88;1599923;89;20368;-78
2020/12/03 08:17:19;;;;;;;;;;;;;;;-1.37;80.75;100584.33;1599647;89;20297;-79
2020/12/03 08:20:06;;;;;;;;;;;;;;;-1.37;80.73;100579.25;1595354;89;20271;-79
2020/12/03 08:22:42;;;;;;;;;;;;;;;-1.34;80.73;100585.69;1594433;87;20292;-78
2020/12/03 08:25:25;;;;;;;;;;;;;;;-1.34;80.74;100585.69;1571252;89;21170;-78
2020/12/03 08:27:58;;;;;;;;;;;;;;;-1.31;80.75;100573.92;1593206;87;20285;-79
2020/12/03 08:30:36;;;;;;;;;;;;;;;-1.27;80.81;100574.06;1594431;87;20294;-79
2020/12/03 08:33:17;;;;;;;;;;;;;;;-1.23;80.77;100573.34;1599136;88;20296;-79
2020/12/03 08:35:51;;;;;;;;;;;;;;;-1.22;80.70;100581.41;1601574;88;20374;-79
2020/12/03 08:38:22;;;;;;;;;;;;;;;-1.22;80.67;100577.60;1591590;89;21247;-79
2020/12/03 08:40:48;;;;;;;;;;;;;;;-1.21;80.69;100578.47;1600334;87;20330;-78
2020/12/03 08:43:16;;;;;;;;;;;;;;;-1.21;80.65;100577.20;1605132;86;20567;-78
2020/12/03 08:45:55;;;;;;;;;;;;;;;-1.20;80.66;100568.77;1605836;89;20274;-78
2020/12/03 08:48:21;;;;;;;;;;;;;;;-1.19;80.70;100575.16;1629845;87;20265;-80
2020/12/03 08:50:55;;;;;;;;;;;;;;;-1.16;80.69;100570.18;1657533;86;21256;-79
2020/12/03 08:53:21;;;;;;;;;;;;;;;-1.13;80.70;100573.22;1656005;86;20255;-79
2020/12/03 08:55:47;;;;;;;;;;;;;;;-1.12;80.66;100566.06;1658157;85;20281;-79
2020/12/03 08:58:15;;;;;;;;;;;;;;;-1.08;80.69;100565.34;1644591;86;20176;-80
2020/12/03 09:00:43;;;;;;;;;;;;;;;-1.07;80.68;100565.38;1642142;86;20250;-80
2020/12/03 09:03:11;;;;;;;;;;;;;;;-1.04;80.66;100573.05;1633033;86;21137;-80
2020/12/03 09:05:39;;;;;;;;;;;;;;;-1.01;80.64;100565.94;1645812;85;20678;-80
2020/12/03 09:08:06;;;;;;;;;;;;;;;-0.99;80.64;100568.13;1656946;84;20268;-79
2020/12/03 09:10:33;;;;;;;;;;;;;;;-0.97;80.69;100574.10;1656356;84;20262;-78
2020/12/03 09:12:59;;;;;;;;;;;;;;;-0.96;80.57;100571.16;1645972;86;20264;-78
2020/12/03 09:15:26;;;;;;;;;;;;;;;-0.97;80.59;100578.31;1655087;84;21142;-78
2020/12/03 09:17:55;;;;;;;;;;;;;;;-0.97;80.56;100571.97;1651329;86;20303;-78
2020/12/03 09:20:22;;;;;;;;;;;;;;;-0.97;80.61;100565.22;1651444;85;20269;-78
2020/12/03 09:22:48;;;;;;;;;;;;;;;-0.97;80.71;100567.76;1636411;84;20294;-79
2020/12/03 09:25:14;;;;;;;;;;;;;;;-0.95;80.69;100557.65;1630765;86;20978;-80
2020/12/03 09:27:43;;;;;;;;;;;;;;;-0.96;80.77;100550.45;1651684;86;20346;-81
2020/12/03 09:30:12;;;;;;;;;;;;;;;-0.94;80.86;100553.89;1649526;86;20261;-80
2020/12/03 09:32:40;;;;;;;;;;;;;;;-0.91;80.84;100550.17;1648264;84;20266;-80
2020/12/03 09:35:07;;;;;;;;;;;;;;;-0.91;80.81;100541.70;1616642;86;20659;-79
2020/12/03 09:37:33;;;;;;;;;;;;;;;-0.92;80.85;100542.11;1618535;86;20282;-80
2020/12/03 09:40:00;;;;;;;;;;;;;;;-0.93;80.85;100536.58;1637247;86;21231;-79
2020/12/03 09:42:27;;;;;;;;;;;;;;;-0.95;80.84;100535.67;1654089;86;20267;-78
2020/12/03 09:44:57;;;;;;;;;;;;;;;-0.98;80.81;100533.45;1651453;86;20247;-79
2020/12/03 09:47:27;;;;;;;;;;;;;;;-1.01;80.84;100527.88;1653756;86;20207;-79
2020/12/03 09:49:52;;;;;;;;;;;;;;;-1.03;80.87;100526.56;1648244;86;20258;-79
2020/12/03 09:52:19;;;;;;;;;;;;;;;-1.07;80.90;100529.86;1630757;86;20986;-80
2020/12/03 09:54:45;;;;;;;;;;;;;;;-1.08;80.88;100528.55;1639197;86;20475;-76
2020/12/03 09:57:12;;;;;;;;;;;;;;;-1.13;80.87;100522.06;1659009;84;20233;-76
2020/12/03 09:59:38;;;;;;;;;;;;;;;-1.16;80.91;100514.77;1652877;86;20251;-76
2020/12/03 10:02:11;;;;;;;;;;;;;;;-1.17;80.98;100516.86;1646110;84;20250;-76
2020/12/03 10:04:55;;;;;;;;;;;;;;;-1.20;81.02;100511.29;1650645;86;22015;-76
2020/12/03 10:07:58;;;;;;;;;;;;;;;-1.20;81.08;100511.29;1638273;86;20289;-76
2020/12/03 10:10:45;;;;;;;;;;;;;;;-1.23;81.05;100506.13;1636331;86;20154;-76
2020/12/03 10:13:45;;;;;;;;;;;;;;;-1.27;81.02;100501.77;1648813;86;20257;-76
2020/12/03 10:16:19;;;;;;;;;;;;;;;-1.31;81.05;100493.62;1645929;86;20254;-79
2020/12/03 10:18:53;;;;;;;;;;;;;;;-1.36;81.09;100485.88;1620143;86;21788;-79
2020/12/03 10:21:22;;;;;;;;;;;;;;;-1.38;81.14;100479.89;1610993;88;20281;-79
2020/12/03 10:24:00;;;;;;;;;;;;;;;-1.37;81.23;100480.75;1614565;87;20283;-79
2020/12/03 10:26:34;;;;;;;;;;;;;;;-1.35;81.35;100470.25;1593420;88;20283;-79
2020/12/03 10:29:34;;;;;;;;;;;;;;;-1.32;81.27;100466.94;1616221;87;20271;-79
2020/12/03 10:32:09;;;;;;;;;;;;;;;-1.32;81.23;100456.39;1562503;90;21948;-79
2020/12/03 10:34:40;;;;;;;;;;;;;;;-1.32;81.20;100457.66;1609281;87;20275;-79
2020/12/03 10:37:33;;;;;;;;;;;;;;;-1.29;81.33;100456.48;1583443;90;20282;-80
2020/12/03 10:40:12;;;;;;;;;;;;;;;-1.27;81.27;100447.23;1598211;87;20858;-80
2020/12/03 10:42:39;;;;;;;;;;;;;;;-1.25;81.36;100453.63;1617668;87;20288;-80
2020/12/03 10:45:12;;;;;;;;;;;;;;;-1.24;81.35;100446.06;1617492;87;22087;-79
2020/12/03 10:47:39;;;;;;;;;;;;;;;-1.22;81.32;100443.56;1617584;87;20263;-79
2020/12/03 10:50:05;;;;;;;;;;;;;;;-1.22;81.35;100433.42;1611120;87;20598;-80
2020/12/03 10:52:32;;;;;;;;;;;;;;;-1.24;81.33;100432.11;1617987;87;20264;-80
2020/12/03 10:55:00;;;;;;;;;;;;;;;-1.23;81.44;100426.22;1617212;87;20826;-80
2020/12/03 10:57:27;;;;;;;;;;;;;;;-1.21;81.42;100420.78;1594367;88;21161;-80
2020/12/03 10:59:53;;;;;;;;;;;;;;;-1.21;81.36;100424.99;1616359;87;20810;-80
2020/12/03 11:02:32;;;;;;;;;;;;;;;-1.23;81.43;100422.83;1617666;87;20302;-79
2020/12/03 11:04:58;;;;;;;;;;;;;;;-1.22;81.50;100418.20;1615480;87;20286;-78
2020/12/03 11:07:24;;;;;;;;;;;;;;;-1.22;81.50;100413.98;1625686;87;20629;-80
2020/12/03 11:09:52;;;;;;;;;;;;;;;-1.19;81.56;100409.41;1621490;87;21271;-81
2020/12/03 11:12:19;;;;;;;;;;;;;;;-1.18;81.55;100403.52;1619635;87;20525;-80
2020/12/03 11:14:46;;;;;;;;;;;;;;;-1.17;81.53;100397.22;1615763;87;20304;-80
2020/12/03 11:17:24;;;;;;;;;;;;;;;-1.14;81.62;100398.58;1619582;85;20299;-81
2020/12/03 11:19:53;;;;;;;;;;;;;;;-1.10;81.62;100395.71;1608521;88;20364;-79
2020/12/03 11:22:35;;;;;;;;;;;;;;;-1.08;81.69;100383.52;1614092;87;22651;-80
2020/12/03 11:25:04;;;;;;;;;;;;;;;-1.05;81.67;100379.80;1615905;87;20334;-80
2020/12/03 11:27:30;;;;;;;;;;;;;;;-1.04;81.63;100378.12;1612137;87;20718;-80
2020/12/03 11:29:56;;;;;;;;;;;;;;;-1.02;81.67;100363.77;1605473;88;20780;-80
2020/12/03 11:32:26;;;;;;;;;;;;;;;-1.02;81.65;100344.32;1606981;88;20309;-80
2020/12/03 11:34:53;;;;;;;;;;;;;;;-1.00;81.67;100347.76;1590061;88;21701;-81
2020/12/03 11:37:23;;;;;;;;;;;;;;;-1.00;81.64;100338.87;1611432;88;20898;-81
2020/12/03 11:39:50;;;;;;;;;;;;;;;-1.00;81.74;100327.45;1584853;88;20283;-81
2020/12/03 11:50:16;;;;;;;;;;;;;;;-0.97;81.80;100302.98;1599986;88;20296;-81
2020/12/03 11:52:41;;;;;;;;;;;;;;;-0.94;81.89;100310.27;1606766;88;20331;-81
2020/12/03 11:55:19;;;;;;;;;;;;;;;-0.92;81.90;100297.20;1603854;87;20778;-81
2020/12/03 11:57:45;;;;;;;;;;;;;;;-0.92;81.82;100299.74;1637436;85;20277;-87
2020/12/03 12:00:18;;;;;;;;;;;;;;;-0.93;81.87;100298.43;1658460;85;21397;-79
2020/12/03 12:02:44;;;;;;;;;;;;;;;-0.92;81.90;100296.34;1654006;85;20294;-80
2020/12/03 12:05:23;;;;;;;;;;;;;;;-0.92;81.94;100295.94;1652942;85;20455;-80
2020/12/03 12:07:53;;;;;;;;;;;;;;;-0.89;81.97;100293.88;1657817;85;20287;-80
2020/12/03 12:10:26;;;;;;;;;;;;;;;-0.88;82.00;100291.38;1635103;85;20271;-80
2020/12/03 12:12:45;;;;;;;;;;;;;;;-0.86;82.00;100294.81;1652906;85;20271;-80
2020/12/03 12:15:11;;;;;;;;;;;;;;;-0.86;81.92;100292.28;1659460;85;20251;-81
2020/12/03 12:17:37;;;;;;;;;;;;;;;-0.87;81.94;100289.70;1632284;87;20222;-80
2020/12/03 12:20:07;;;;;;;;;;;;;;;-0.88;81.92;100293.06;1603505;88;20301;-80
2020/12/03 12:22:32;;;;;;;;;;;;;;;-0.91;81.93;100291.31;1608607;87;20308;-80
2020/12/03 12:24:58;;;;;;;;;;;;;;;-0.92;81.93;100293.39;1604803;89;21135;-80
2020/12/03 12:27:23;;;;;;;;;;;;;;;-0.92;82.01;100290.00;1602186;87;20766;-80
2020/12/03 12:29:49;;;;;;;;;;;;;;;-0.95;81.94;100280.63;1624785;86;20226;-80
2020/12/03 12:32:15;;;;;;;;;;;;;;;-0.95;81.99;100279.77;1626207;87;20223;-80
2020/12/03 12:34:45;;;;;;;;;;;;;;;-0.95;82.05;100273.42;1608019;87;21234;-80
2020/12/03 12:37:11;;;;;;;;;;;;;;;-0.96;81.98;100271.30;1607496;87;21188;-80
2020/12/03 12:39:38;;;;;;;;;;;;;;;-0.98;81.92;100267.86;1616879;87;20482;-79
2020/12/03 12:42:06;;;;;;;;;;;;;;;-1.03;81.93;100265.62;1607663;89;20296;-80
2020/12/03 12:44:32;;;;;;;;;;;;;;;-1.05;82.01;100263.08;1601399;89;20272;-80
2020/12/03 12:47:00;;;;;;;;;;;;;;;-1.06;81.95;100260.50;1575984;89;20803;-80
2020/12/03 12:49:26;;;;;;;;;;;;;;;-1.08;82.03;100260.87;1626153;87;21378;-79
2020/12/03 12:51:52;;;;;;;;;;;;;;;-1.09;82.09;100261.70;1629760;86;20526;-79
2020/12/03 12:54:21;;;;;;;;;;;;;;;-1.10;82.04;100253.23;1631562;87;20263;-80
2020/12/03 12:56:47;;;;;;;;;;;;;;;-1.12;82.08;100248.52;1620098;86;20261;-80
2020/12/03 12:59:14;;;;;;;;;;;;;;;-1.14;82.06;100246.77;1632398;87;20288;-80
2020/12/03 13:01:45;;;;;;;;;;;;;;;-1.13;82.15;100235.39;1623301;87;21194;-80
2020/12/03 13:04:11;;;;;;;;;;;;;;;-1.12;82.11;100238.78;1625116;87;20436;-80